Aérodrome :
LOGIN :

S'inscrire | Disclaimer

   EN    FR    IT 

 










Légende :    VFR   VFR Marginal   IFR   IFR Intensif   IFR Très Intensif
Visi : 
Plafond : 
>= 8 km
>= 3000ft
5 à 8 km
1000 à 3000 ft
1500m à 5 km
500 à 1000 ft
800 à 1500m
200 à 500 ft
< 800m
< 200 ft
Symboles :   Orages  Brouillard  Fortes neiges  Fortes précipitations  Vent > 20 kt
SIGMETs :   Divers  Orages  Givrage  Turbulence  Onde Orograph.  Cendres Volcan.







- Altitude de l'aérodrome : 400 ft
- Code IATA : BNX


LQBK - Banja Luka

DERNIER METAR :
  • 230430Z VRB01KT 2500 -SN BR BKN006 OVC015 M03/M03 Q1002 NOSIG

METARs EXPIRÉS :
  • 230400Z VRB01KT 2200 -SN BR BKN006 OVC015 M03/M03 Q1002 NOSIG
  • 230330Z VRB01KT 2200 -SN BR BKN006 OVC015 M03/M03 Q1002 NOSIG
  • 230300Z 14002KT 2200 -SN BR BKN005 OVC015 M02/M03 Q1002 NOSIG
  • 230230Z VRB01KT 2500 -SN BR BKN003 OVC013 M02/M03 Q1003 NOSIG
  • 230200Z VRB01KT 3000 -SN BR BKN003 OVC013 M02/M03 Q1003 NOSIG

TAF TAF LQBK
Valide du 23 à 00h jusqu'au 24 à 00h UTC


222300Z 2300/2324 02005KT 3000 -SN BR BKN005 OVC017 TXM00/2313Z TNM02/2306Z
TEMPO 2300/2307 1200 SN BKN003 OVC015
BECMG 2308/2310 6000 NSW BKN020
Pas de NOTAMs connus pour ce terrain.



MET'MAP, la Météo Aéronautique d'un coup d'oeil ! - Copyright ORBIFLY Décembre 2007 - Disclaimer

ORBIFLY MET'MAP TEAM :

Programmation & Développement : Alexandra Zaïnal
Conception & Développement : Baudouin d'Aumeries
Co-Programmation & Développement : Marc-Olivier Méhu
Soutien technique & logistique : Manuel Goepfert

Contact : metmap@orbifly.com




SOURCES & CREDITS :

   NOAA